sensor_id;sensor_type;location;lat;lon;timestamp;P1;durP1;ratioP1;P2;durP2;ratioP2
26113;SDS011;13966;48.828;9.064;2023-06-04T00:00:08;24.00;;;10.70;;
26113;SDS011;13966;48.828;9.064;2023-06-04T00:02:35;21.05;;;10.40;;
26113;SDS011;13966;48.828;9.064;2023-06-04T00:05:01;18.02;;;9.70;;
26113;SDS011;13966;48.828;9.064;2023-06-04T00:07:27;20.05;;;9.27;;
26113;SDS011;13966;48.828;9.064;2023-06-04T00:09:52;13.57;;;8.63;;
26113;SDS011;13966;48.828;9.064;2023-06-04T00:12:19;15.85;;;8.50;;
26113;SDS011;13966;48.828;9.064;2023-06-04T00:14:45;17.55;;;8.48;;
26113;SDS011;13966;48.828;9.064;2023-06-04T00:17:11;19.00;;;9.15;;
26113;SDS011;13966;48.828;9.064;2023-06-04T00:19:40;15.73;;;8.10;;
26113;SDS011;13966;48.828;9.064;2023-06-04T00:22:06;13.80;;;8.00;;
26113;SDS011;13966;48.828;9.064;2023-06-04T00:24:33;15.63;;;9.00;;
26113;SDS011;13966;48.828;9.064;2023-06-04T00:26:59;14.88;;;8.43;;
26113;SDS011;13966;48.828;9.064;2023-06-04T00:29:25;12.98;;;8.27;;
26113;SDS011;13966;48.828;9.064;2023-06-04T00:31:51;13.90;;;8.60;;
26113;SDS011;13966;48.828;9.064;2023-06-04T00:34:17;16.98;;;8.93;;
26113;SDS011;13966;48.828;9.064;2023-06-04T00:36:44;14.98;;;8.77;;
26113;SDS011;13966;48.828;9.064;2023-06-04T00:39:10;13.10;;;7.88;;
26113;SDS011;13966;48.828;9.064;2023-06-04T00:41:36;15.23;;;7.78;;
26113;SDS011;13966;48.828;9.064;2023-06-04T00:44:02;15.40;;;8.30;;
26113;SDS011;13966;48.828;9.064;2023-06-04T00:46:31;15.50;;;8.20;;
26113;SDS011;13966;48.828;9.064;2023-06-04T00:48:58;13.40;;;8.18;;
26113;SDS011;13966;48.828;9.064;2023-06-04T00:51:24;13.32;;;7.55;;
26113;SDS011;13966;48.828;9.064;2023-06-04T00:53:51;16.77;;;8.38;;
26113;SDS011;13966;48.828;9.064;2023-06-04T00:56:18;12.25;;;8.48;;
26113;SDS011;13966;48.828;9.064;2023-06-04T00:58:44;16.85;;;8.13;;
26113;SDS011;13966;48.828;9.064;2023-06-04T01:01:31;15.07;;;8.18;;
26113;SDS011;13966;48.828;9.064;2023-06-04T01:04:01;11.75;;;7.72;;
26113;SDS011;13966;48.828;9.064;2023-06-04T01:06:30;13.45;;;7.47;;
26113;SDS011;13966;48.828;9.064;2023-06-04T01:08:57;13.77;;;8.32;;
26113;SDS011;13966;48.828;9.064;2023-06-04T01:11:36;15.60;;;8.00;;
26113;SDS011;13966;48.828;9.064;2023-06-04T01:14:03;13.75;;;8.18;;
26113;SDS011;13966;48.828;9.064;2023-06-04T01:16:30;11.57;;;7.68;;
26113;SDS011;13966;48.828;9.064;2023-06-04T01:19:00;15.77;;;8.40;;
26113;SDS011;13966;48.828;9.064;2023-06-04T01:21:30;13.65;;;8.30;;
26113;SDS011;13966;48.828;9.064;2023-06-04T01:24:00;12.38;;;8.20;;
26113;SDS011;13966;48.828;9.064;2023-06-04T01:26:27;14.90;;;8.90;;
26113;SDS011;13966;48.828;9.064;2023-06-04T01:28:55;12.85;;;8.38;;
26113;SDS011;13966;48.828;9.064;2023-06-04T01:31:21;14.00;;;8.88;;
26113;SDS011;13966;48.828;9.064;2023-06-04T01:33:50;16.90;;;9.15;;
26113;SDS011;13966;48.828;9.064;2023-06-04T01:36:16;11.75;;;9.00;;
26113;SDS011;13966;48.828;9.064;2023-06-04T01:38:42;18.88;;;9.23;;
26113;SDS011;13966;48.828;9.064;2023-06-04T01:41:08;15.48;;;9.23;;
26113;SDS011;13966;48.828;9.064;2023-06-04T01:43:34;12.55;;;8.40;;
26113;SDS011;13966;48.828;9.064;2023-06-04T01:46:01;13.55;;;8.52;;
26113;SDS011;13966;48.828;9.064;2023-06-04T01:48:28;11.98;;;8.68;;
26113;SDS011;13966;48.828;9.064;2023-06-04T01:50:54;15.80;;;8.85;;
26113;SDS011;13966;48.828;9.064;2023-06-04T01:53:21;12.35;;;8.10;;
26113;SDS011;13966;48.828;9.064;2023-06-04T01:55:47;17.48;;;8.40;;
26113;SDS011;13966;48.828;9.064;2023-06-04T01:58:14;15.10;;;8.85;;
26113;SDS011;13966;48.828;9.064;2023-06-04T02:00:42;13.63;;;8.32;;
26113;SDS011;13966;48.828;9.064;2023-06-04T02:03:08;13.18;;;7.90;;
26113;SDS011;13966;48.828;9.064;2023-06-04T02:05:35;16.45;;;9.20;;
26113;SDS011;13966;48.828;9.064;2023-06-04T02:08:01;13.30;;;8.50;;
26113;SDS011;13966;48.828;9.064;2023-06-04T02:10:29;13.63;;;8.40;;
26113;SDS011;13966;48.828;9.064;2023-06-04T02:12:56;15.25;;;8.98;;
26113;SDS011;13966;48.828;9.064;2023-06-04T02:15:23;18.83;;;9.93;;
26113;SDS011;13966;48.828;9.064;2023-06-04T02:17:49;17.17;;;9.90;;
26113;SDS011;13966;48.828;9.064;2023-06-04T02:20:16;16.20;;;9.82;;
26113;SDS011;13966;48.828;9.064;2023-06-04T02:22:42;14.10;;;9.15;;
26113;SDS011;13966;48.828;9.064;2023-06-04T02:25:08;19.38;;;10.30;;
26113;SDS011;13966;48.828;9.064;2023-06-04T02:27:34;19.42;;;9.60;;
26113;SDS011;13966;48.828;9.064;2023-06-04T02:30:01;15.75;;;9.85;;
26113;SDS011;13966;48.828;9.064;2023-06-04T02:32:27;15.68;;;9.25;;
26113;SDS011;13966;48.828;9.064;2023-06-04T02:34:53;15.65;;;9.18;;
26113;SDS011;13966;48.828;9.064;2023-06-04T02:37:20;15.80;;;9.32;;
26113;SDS011;13966;48.828;9.064;2023-06-04T02:39:47;15.70;;;8.85;;
26113;SDS011;13966;48.828;9.064;2023-06-04T02:42:13;16.05;;;8.40;;
26113;SDS011;13966;48.828;9.064;2023-06-04T02:44:39;13.27;;;8.43;;
26113;SDS011;13966;48.828;9.064;2023-06-04T02:47:05;13.40;;;8.00;;
26113;SDS011;13966;48.828;9.064;2023-06-04T02:49:31;12.30;;;7.95;;
26113;SDS011;13966;48.828;9.064;2023-06-04T02:51:57;11.43;;;7.68;;
26113;SDS011;13966;48.828;9.064;2023-06-04T02:54:23;17.63;;;8.20;;
26113;SDS011;13966;48.828;9.064;2023-06-04T02:56:49;10.50;;;7.10;;
26113;SDS011;13966;48.828;9.064;2023-06-04T02:59:16;11.48;;;7.30;;
26113;SDS011;13966;48.828;9.064;2023-06-04T03:01:42;13.00;;;7.85;;
26113;SDS011;13966;48.828;9.064;2023-06-04T03:04:09;12.30;;;7.93;;
26113;SDS011;13966;48.828;9.064;2023-06-04T03:06:35;9.80;;;6.65;;
26113;SDS011;13966;48.828;9.064;2023-06-04T03:09:04;12.10;;;7.60;;
26113;SDS011;13966;48.828;9.064;2023-06-04T03:11:32;11.38;;;7.47;;
26113;SDS011;13966;48.828;9.064;2023-06-04T03:13:58;12.55;;;7.18;;
26113;SDS011;13966;48.828;9.064;2023-06-04T03:16:24;12.00;;;7.25;;
26113;SDS011;13966;48.828;9.064;2023-06-04T03:18:50;9.80;;;6.57;;
26113;SDS011;13966;48.828;9.064;2023-06-04T03:21:16;14.77;;;6.38;;
26113;SDS011;13966;48.828;9.064;2023-06-04T03:23:42;9.38;;;6.63;;
26113;SDS011;13966;48.828;9.064;2023-06-04T03:26:08;9.30;;;5.63;;
26113;SDS011;13966;48.828;9.064;2023-06-04T03:28:37;9.15;;;6.50;;
26113;SDS011;13966;48.828;9.064;2023-06-04T03:31:04;10.80;;;6.25;;
26113;SDS011;13966;48.828;9.064;2023-06-04T03:33:30;8.50;;;5.88;;
26113;SDS011;13966;48.828;9.064;2023-06-04T03:35:56;10.25;;;5.85;;
26113;SDS011;13966;48.828;9.064;2023-06-04T03:38:25;9.60;;;5.97;;
26113;SDS011;13966;48.828;9.064;2023-06-04T03:40:51;8.75;;;6.13;;
26113;SDS011;13966;48.828;9.064;2023-06-04T03:43:18;10.73;;;6.13;;
26113;SDS011;13966;48.828;9.064;2023-06-04T03:45:44;8.77;;;6.00;;
26113;SDS011;13966;48.828;9.064;2023-06-04T03:48:10;8.88;;;5.78;;
26113;SDS011;13966;48.828;9.064;2023-06-04T03:50:36;11.23;;;5.30;;
26113;SDS011;13966;48.828;9.064;2023-06-04T03:53:03;14.40;;;6.97;;
26113;SDS011;13966;48.828;9.064;2023-06-04T03:55:32;8.05;;;5.72;;
26113;SDS011;13966;48.828;9.064;2023-06-04T03:57:58;9.38;;;5.40;;
26113;SDS011;13966;48.828;9.064;2023-06-04T04:00:24;7.78;;;5.07;;
26113;SDS011;13966;48.828;9.064;2023-06-04T04:02:51;7.80;;;5.07;;
26113;SDS011;13966;48.828;9.064;2023-06-04T04:05:17;6.30;;;4.80;;
26113;SDS011;13966;48.828;9.064;2023-06-04T04:07:43;13.50;;;5.45;;
26113;SDS011;13966;48.828;9.064;2023-06-04T04:10:09;9.38;;;5.50;;
26113;SDS011;13966;48.828;9.064;2023-06-04T04:12:35;9.45;;;5.30;;
26113;SDS011;13966;48.828;9.064;2023-06-04T04:15:01;9.85;;;4.78;;
26113;SDS011;13966;48.828;9.064;2023-06-04T04:17:27;6.10;;;4.82;;
26113;SDS011;13966;48.828;9.064;2023-06-04T04:19:53;6.57;;;4.95;;
26113;SDS011;13966;48.828;9.064;2023-06-04T04:22:19;8.00;;;4.80;;
26113;SDS011;13966;48.828;9.064;2023-06-04T04:24:45;7.28;;;4.65;;
26113;SDS011;13966;48.828;9.064;2023-06-04T04:27:12;8.63;;;5.15;;
26113;SDS011;13966;48.828;9.064;2023-06-04T04:29:38;10.75;;;5.25;;
26113;SDS011;13966;48.828;9.064;2023-06-04T04:32:04;11.40;;;5.10;;
26113;SDS011;13966;48.828;9.064;2023-06-04T04:34:49;7.07;;;4.78;;
26113;SDS011;13966;48.828;9.064;2023-06-04T04:37:16;8.30;;;4.78;;
26113;SDS011;13966;48.828;9.064;2023-06-04T04:39:46;9.57;;;4.93;;
26113;SDS011;13966;48.828;9.064;2023-06-04T04:42:12;10.73;;;4.95;;
26113;SDS011;13966;48.828;9.064;2023-06-04T04:44:38;6.68;;;4.43;;
26113;SDS011;13966;48.828;9.064;2023-06-04T04:47:04;10.20;;;4.35;;
26113;SDS011;13966;48.828;9.064;2023-06-04T04:49:30;8.32;;;5.00;;
26113;SDS011;13966;48.828;9.064;2023-06-04T04:51:56;6.75;;;4.70;;
26113;SDS011;13966;48.828;9.064;2023-06-04T04:54:22;9.70;;;5.15;;
26113;SDS011;13966;48.828;9.064;2023-06-04T04:56:48;6.95;;;4.80;;
26113;SDS011;13966;48.828;9.064;2023-06-04T04:59:14;9.52;;;4.40;;
26113;SDS011;13966;48.828;9.064;2023-06-04T05:01:40;6.70;;;4.57;;
26113;SDS011;13966;48.828;9.064;2023-06-04T05:04:06;8.60;;;4.57;;
26113;SDS011;13966;48.828;9.064;2023-06-04T05:06:32;11.68;;;4.38;;
26113;SDS011;13966;48.828;9.064;2023-06-04T05:08:58;7.47;;;4.40;;
26113;SDS011;13966;48.828;9.064;2023-06-04T05:11:24;7.97;;;4.72;;
26113;SDS011;13966;48.828;9.064;2023-06-04T05:13:50;5.43;;;4.10;;
26113;SDS011;13966;48.828;9.064;2023-06-04T05:16:16;8.07;;;4.25;;
26113;SDS011;13966;48.828;9.064;2023-06-04T05:18:45;10.75;;;4.00;;
26113;SDS011;13966;48.828;9.064;2023-06-04T05:21:11;5.80;;;3.92;;
26113;SDS011;13966;48.828;9.064;2023-06-04T05:23:38;5.10;;;3.67;;
26113;SDS011;13966;48.828;9.064;2023-06-04T05:26:04;9.38;;;3.78;;
26113;SDS011;13966;48.828;9.064;2023-06-04T05:28:31;4.20;;;2.95;;
26113;SDS011;13966;48.828;9.064;2023-06-04T05:30:59;6.32;;;3.00;;
26113;SDS011;13966;48.828;9.064;2023-06-04T05:33:30;9.38;;;3.10;;
26113;SDS011;13966;48.828;9.064;2023-06-04T05:35:56;6.43;;;2.65;;
26113;SDS011;13966;48.828;9.064;2023-06-04T05:38:23;4.70;;;2.85;;
26113;SDS011;13966;48.828;9.064;2023-06-04T05:40:50;5.53;;;2.90;;
26113;SDS011;13966;48.828;9.064;2023-06-04T05:43:17;6.60;;;2.80;;
26113;SDS011;13966;48.828;9.064;2023-06-04T05:45:43;7.25;;;3.42;;
26113;SDS011;13966;48.828;9.064;2023-06-04T05:48:10;6.25;;;3.25;;
26113;SDS011;13966;48.828;9.064;2023-06-04T05:50:36;5.10;;;3.03;;
26113;SDS011;13966;48.828;9.064;2023-06-04T05:53:02;6.25;;;3.00;;
26113;SDS011;13966;48.828;9.064;2023-06-04T05:55:28;7.07;;;3.22;;
26113;SDS011;13966;48.828;9.064;2023-06-04T05:57:54;5.25;;;3.00;;
26113;SDS011;13966;48.828;9.064;2023-06-04T06:00:21;4.55;;;2.67;;
26113;SDS011;13966;48.828;9.064;2023-06-04T06:02:49;3.72;;;2.70;;
26113;SDS011;13966;48.828;9.064;2023-06-04T06:05:15;4.55;;;2.70;;
26113;SDS011;13966;48.828;9.064;2023-06-04T06:07:41;5.13;;;2.78;;
26113;SDS011;13966;48.828;9.064;2023-06-04T06:10:07;3.78;;;2.30;;
26113;SDS011;13966;48.828;9.064;2023-06-04T06:12:34;4.75;;;2.80;;
26113;SDS011;13966;48.828;9.064;2023-06-04T06:15:00;6.72;;;2.60;;
26113;SDS011;13966;48.828;9.064;2023-06-04T06:17:26;3.95;;;2.25;;
26113;SDS011;13966;48.828;9.064;2023-06-04T06:19:53;7.82;;;2.92;;
26113;SDS011;13966;48.828;9.064;2023-06-04T06:22:19;4.55;;;2.78;;
26113;SDS011;13966;48.828;9.064;2023-06-04T06:24:45;3.53;;;2.38;;
26113;SDS011;13966;48.828;9.064;2023-06-04T06:27:14;5.30;;;2.70;;
26113;SDS011;13966;48.828;9.064;2023-06-04T06:29:41;5.78;;;2.58;;
26113;SDS011;13966;48.828;9.064;2023-06-04T06:32:07;4.88;;;2.63;;
26113;SDS011;13966;48.828;9.064;2023-06-04T06:34:33;4.68;;;2.70;;
26113;SDS011;13966;48.828;9.064;2023-06-04T06:36:59;3.92;;;2.45;;
26113;SDS011;13966;48.828;9.064;2023-06-04T06:39:25;4.78;;;2.88;;
26113;SDS011;13966;48.828;9.064;2023-06-04T06:41:51;6.15;;;2.75;;
26113;SDS011;13966;48.828;9.064;2023-06-04T06:44:17;5.32;;;2.58;;
26113;SDS011;13966;48.828;9.064;2023-06-04T06:46:43;7.53;;;2.75;;
26113;SDS011;13966;48.828;9.064;2023-06-04T06:49:09;6.50;;;2.80;;
26113;SDS011;13966;48.828;9.064;2023-06-04T06:51:35;5.65;;;2.97;;
26113;SDS011;13966;48.828;9.064;2023-06-04T06:54:01;6.82;;;2.70;;
26113;SDS011;13966;48.828;9.064;2023-06-04T06:56:27;6.50;;;2.40;;
26113;SDS011;13966;48.828;9.064;2023-06-04T06:58:53;4.68;;;2.60;;
26113;SDS011;13966;48.828;9.064;2023-06-04T07:01:20;5.50;;;2.58;;
26113;SDS011;13966;48.828;9.064;2023-06-04T07:03:46;5.40;;;2.15;;
26113;SDS011;13966;48.828;9.064;2023-06-04T07:06:12;5.18;;;2.33;;
26113;SDS011;13966;48.828;9.064;2023-06-04T07:08:39;5.93;;;2.45;;
26113;SDS011;13966;48.828;9.064;2023-06-04T07:11:05;5.07;;;2.67;;
26113;SDS011;13966;48.828;9.064;2023-06-04T07:13:32;3.67;;;1.90;;
26113;SDS011;13966;48.828;9.064;2023-06-04T07:16:00;3.05;;;1.90;;
26113;SDS011;13966;48.828;9.064;2023-06-04T07:18:26;3.28;;;2.17;;
26113;SDS011;13966;48.828;9.064;2023-06-04T07:20:52;3.72;;;2.40;;
26113;SDS011;13966;48.828;9.064;2023-06-04T07:23:18;5.05;;;2.22;;
26113;SDS011;13966;48.828;9.064;2023-06-04T07:25:44;4.20;;;2.00;;
26113;SDS011;13966;48.828;9.064;2023-06-04T07:28:10;4.70;;;2.20;;
26113;SDS011;13966;48.828;9.064;2023-06-04T07:30:37;5.63;;;2.10;;
26113;SDS011;13966;48.828;9.064;2023-06-04T07:33:03;5.13;;;2.20;;
26113;SDS011;13966;48.828;9.064;2023-06-04T07:35:29;4.00;;;2.40;;
26113;SDS011;13966;48.828;9.064;2023-06-04T07:37:55;4.85;;;2.20;;
26113;SDS011;13966;48.828;9.064;2023-06-04T07:40:21;3.45;;;2.28;;
26113;SDS011;13966;48.828;9.064;2023-06-04T07:42:47;5.47;;;2.30;;
26113;SDS011;13966;48.828;9.064;2023-06-04T07:45:13;4.60;;;2.50;;
26113;SDS011;13966;48.828;9.064;2023-06-04T07:47:40;7.13;;;2.60;;
26113;SDS011;13966;48.828;9.064;2023-06-04T07:50:06;4.93;;;2.22;;
26113;SDS011;13966;48.828;9.064;2023-06-04T07:52:32;11.45;;;2.33;;
26113;SDS011;13966;48.828;9.064;2023-06-04T07:54:59;4.78;;;2.15;;
26113;SDS011;13966;48.828;9.064;2023-06-04T07:57:25;5.35;;;2.42;;
26113;SDS011;13966;48.828;9.064;2023-06-04T07:59:51;5.13;;;2.13;;
26113;SDS011;13966;48.828;9.064;2023-06-04T08:02:17;4.82;;;2.00;;
26113;SDS011;13966;48.828;9.064;2023-06-04T08:04:44;7.53;;;2.70;;
26113;SDS011;13966;48.828;9.064;2023-06-04T08:07:10;5.57;;;2.65;;
26113;SDS011;13966;48.828;9.064;2023-06-04T08:09:37;2.88;;;2.28;;
26113;SDS011;13966;48.828;9.064;2023-06-04T08:12:03;4.63;;;2.10;;
26113;SDS011;13966;48.828;9.064;2023-06-04T08:14:29;7.72;;;2.30;;
26113;SDS011;13966;48.828;9.064;2023-06-04T08:16:55;3.90;;;2.47;;
26113;SDS011;13966;48.828;9.064;2023-06-04T08:19:21;3.80;;;2.45;;
26113;SDS011;13966;48.828;9.064;2023-06-04T08:21:48;4.82;;;2.33;;
26113;SDS011;13966;48.828;9.064;2023-06-04T08:24:14;5.78;;;2.42;;
26113;SDS011;13966;48.828;9.064;2023-06-04T08:26:40;3.47;;;2.03;;
26113;SDS011;13966;48.828;9.064;2023-06-04T08:29:06;4.57;;;2.13;;
26113;SDS011;13966;48.828;9.064;2023-06-04T08:31:33;3.38;;;2.13;;
26113;SDS011;13966;48.828;9.064;2023-06-04T08:33:59;4.43;;;2.40;;
26113;SDS011;13966;48.828;9.064;2023-06-04T08:36:26;4.07;;;2.53;;
26113;SDS011;13966;48.828;9.064;2023-06-04T08:38:52;3.60;;;2.38;;
26113;SDS011;13966;48.828;9.064;2023-06-04T08:41:28;6.53;;;2.10;;
26113;SDS011;13966;48.828;9.064;2023-06-04T08:43:55;5.65;;;2.13;;
26113;SDS011;13966;48.828;9.064;2023-06-04T08:46:22;4.88;;;2.78;;
26113;SDS011;13966;48.828;9.064;2023-06-04T08:48:49;7.78;;;2.42;;
26113;SDS011;13966;48.828;9.064;2023-06-04T08:51:15;4.22;;;1.85;;
26113;SDS011;13966;48.828;9.064;2023-06-04T08:53:42;3.75;;;2.03;;
26113;SDS011;13966;48.828;9.064;2023-06-04T08:56:12;6.13;;;2.13;;
26113;SDS011;13966;48.828;9.064;2023-06-04T08:58:39;5.70;;;2.38;;
26113;SDS011;13966;48.828;9.064;2023-06-04T09:01:05;4.45;;;2.13;;
26113;SDS011;13966;48.828;9.064;2023-06-04T09:03:32;3.95;;;2.10;;
26113;SDS011;13966;48.828;9.064;2023-06-04T09:06:00;9.35;;;2.58;;
26113;SDS011;13966;48.828;9.064;2023-06-04T09:08:30;7.72;;;2.28;;
26113;SDS011;13966;48.828;9.064;2023-06-04T09:10:56;8.15;;;2.50;;
26113;SDS011;13966;48.828;9.064;2023-06-04T09:13:25;6.00;;;2.22;;
26113;SDS011;13966;48.828;9.064;2023-06-04T09:16:03;8.40;;;2.10;;
26113;SDS011;13966;48.828;9.064;2023-06-04T09:18:30;4.80;;;2.20;;
26113;SDS011;13966;48.828;9.064;2023-06-04T09:21:03;4.13;;;2.03;;
26113;SDS011;13966;48.828;9.064;2023-06-04T09:23:30;4.95;;;2.00;;
26113;SDS011;13966;48.828;9.064;2023-06-04T09:25:57;5.10;;;2.35;;
26113;SDS011;13966;48.828;9.064;2023-06-04T09:28:31;5.20;;;2.40;;
26113;SDS011;13966;48.828;9.064;2023-06-04T09:30:57;4.90;;;2.30;;
26113;SDS011;13966;48.828;9.064;2023-06-04T09:33:23;3.45;;;2.17;;
26113;SDS011;13966;48.828;9.064;2023-06-04T09:35:55;4.95;;;2.38;;
26113;SDS011;13966;48.828;9.064;2023-06-04T09:38:21;4.18;;;2.13;;
26113;SDS011;13966;48.828;9.064;2023-06-04T09:40:47;4.63;;;2.28;;
26113;SDS011;13966;48.828;9.064;2023-06-04T09:43:23;4.97;;;2.13;;
26113;SDS011;13966;48.828;9.064;2023-06-04T09:45:49;4.07;;;1.95;;
26113;SDS011;13966;48.828;9.064;2023-06-04T09:48:19;4.18;;;2.50;;
26113;SDS011;13966;48.828;9.064;2023-06-04T09:50:46;3.13;;;2.10;;
26113;SDS011;13966;48.828;9.064;2023-06-04T09:53:16;4.50;;;2.08;;
26113;SDS011;13966;48.828;9.064;2023-06-04T09:55:42;4.88;;;2.10;;
26113;SDS011;13966;48.828;9.064;2023-06-04T09:58:08;3.10;;;2.10;;
26113;SDS011;13966;48.828;9.064;2023-06-04T10:00:37;3.72;;;2.58;;
26113;SDS011;13966;48.828;9.064;2023-06-04T10:03:03;3.08;;;2.00;;
26113;SDS011;13966;48.828;9.064;2023-06-04T10:05:31;3.60;;;2.40;;
26113;SDS011;13966;48.828;9.064;2023-06-04T10:08:02;3.38;;;2.30;;
26113;SDS011;13966;48.828;9.064;2023-06-04T10:10:34;4.97;;;2.38;;
26113;SDS011;13966;48.828;9.064;2023-06-04T10:13:01;3.90;;;2.22;;
26113;SDS011;13966;48.828;9.064;2023-06-04T10:15:31;3.58;;;2.40;;
26113;SDS011;13966;48.828;9.064;2023-06-04T10:17:59;7.15;;;2.45;;
26113;SDS011;13966;48.828;9.064;2023-06-04T10:20:25;2.83;;;1.90;;
26113;SDS011;13966;48.828;9.064;2023-06-04T10:22:51;7.55;;;2.30;;
26113;SDS011;13966;48.828;9.064;2023-06-04T10:25:17;5.57;;;2.55;;
26113;SDS011;13966;48.828;9.064;2023-06-04T10:27:44;6.07;;;2.60;;
26113;SDS011;13966;48.828;9.064;2023-06-04T10:30:12;5.43;;;2.50;;
26113;SDS011;13966;48.828;9.064;2023-06-04T10:32:38;3.60;;;2.70;;
26113;SDS011;13966;48.828;9.064;2023-06-04T10:35:04;6.03;;;2.85;;
26113;SDS011;13966;48.828;9.064;2023-06-04T10:37:33;3.28;;;2.63;;
26113;SDS011;13966;48.828;9.064;2023-06-04T10:39:59;5.65;;;2.15;;
26113;SDS011;13966;48.828;9.064;2023-06-04T10:42:25;5.85;;;2.30;;
26113;SDS011;13966;48.828;9.064;2023-06-04T10:44:52;5.45;;;2.28;;
26113;SDS011;13966;48.828;9.064;2023-06-04T10:47:21;5.65;;;2.33;;
26113;SDS011;13966;48.828;9.064;2023-06-04T10:49:49;4.32;;;2.90;;
26113;SDS011;13966;48.828;9.064;2023-06-04T10:52:16;3.80;;;2.20;;
26113;SDS011;13966;48.828;9.064;2023-06-04T10:54:42;4.05;;;2.75;;
26113;SDS011;13966;48.828;9.064;2023-06-04T10:57:15;4.68;;;2.17;;
26113;SDS011;13966;48.828;9.064;2023-06-04T10:59:42;3.53;;;2.50;;
26113;SDS011;13966;48.828;9.064;2023-06-04T11:02:08;5.47;;;2.30;;
26113;SDS011;13966;48.828;9.064;2023-06-04T11:04:35;5.60;;;2.42;;
26113;SDS011;13966;48.828;9.064;2023-06-04T11:07:06;6.18;;;2.22;;
26113;SDS011;13966;48.828;9.064;2023-06-04T11:09:35;3.45;;;2.40;;
26113;SDS011;13966;48.828;9.064;2023-06-04T11:12:04;5.82;;;2.80;;
26113;SDS011;13966;48.828;9.064;2023-06-04T11:14:30;3.00;;;2.38;;
26113;SDS011;13966;48.828;9.064;2023-06-04T11:16:56;9.20;;;2.45;;
26113;SDS011;13966;48.828;9.064;2023-06-04T11:19:22;3.75;;;2.20;;
26113;SDS011;13966;48.828;9.064;2023-06-04T11:21:49;5.10;;;2.30;;
26113;SDS011;13966;48.828;9.064;2023-06-04T11:24:15;3.55;;;2.83;;
26113;SDS011;13966;48.828;9.064;2023-06-04T11:26:41;4.57;;;2.38;;
26113;SDS011;13966;48.828;9.064;2023-06-04T11:29:09;5.55;;;2.20;;
26113;SDS011;13966;48.828;9.064;2023-06-04T11:31:46;5.63;;;2.42;;
26113;SDS011;13966;48.828;9.064;2023-06-04T11:34:25;4.15;;;2.50;;
26113;SDS011;13966;48.828;9.064;2023-06-04T11:36:51;6.97;;;2.42;;
26113;SDS011;13966;48.828;9.064;2023-06-04T11:39:33;2.63;;;1.90;;
26113;SDS011;13966;48.828;9.064;2023-06-04T11:41:59;5.97;;;2.28;;
26113;SDS011;13966;48.828;9.064;2023-06-04T11:44:30;4.60;;;2.08;;
26113;SDS011;13966;48.828;9.064;2023-06-04T11:46:56;6.32;;;2.15;;
26113;SDS011;13966;48.828;9.064;2023-06-04T11:49:22;2.08;;;1.83;;
26113;SDS011;13966;48.828;9.064;2023-06-04T11:51:49;5.32;;;2.05;;
26113;SDS011;13966;48.828;9.064;2023-06-04T11:54:15;2.85;;;2.15;;
26113;SDS011;13966;48.828;9.064;2023-06-04T11:56:42;4.55;;;2.10;;
26113;SDS011;13966;48.828;9.064;2023-06-04T11:59:15;3.75;;;1.65;;
26113;SDS011;13966;48.828;9.064;2023-06-04T12:01:44;2.47;;;1.63;;
26113;SDS011;13966;48.828;9.064;2023-06-04T12:04:14;3.63;;;1.80;;
26113;SDS011;13966;48.828;9.064;2023-06-04T12:06:54;2.45;;;1.80;;
26113;SDS011;13966;48.828;9.064;2023-06-04T12:09:22;3.05;;;1.70;;
26113;SDS011;13966;48.828;9.064;2023-06-04T12:11:48;4.35;;;1.80;;
26113;SDS011;13966;48.828;9.064;2023-06-04T12:14:17;2.55;;;1.90;;
26113;SDS011;13966;48.828;9.064;2023-06-04T12:16:54;3.72;;;1.50;;
26113;SDS011;13966;48.828;9.064;2023-06-04T12:19:20;3.20;;;1.85;;
26113;SDS011;13966;48.828;9.064;2023-06-04T12:21:46;2.67;;;1.65;;
26113;SDS011;13966;48.828;9.064;2023-06-04T12:24:12;2.35;;;1.42;;
26113;SDS011;13966;48.828;9.064;2023-06-04T12:26:39;2.50;;;1.25;;
26113;SDS011;13966;48.828;9.064;2023-06-04T12:29:12;3.03;;;1.50;;
26113;SDS011;13966;48.828;9.064;2023-06-04T12:31:41;1.67;;;1.20;;
26113;SDS011;13966;48.828;9.064;2023-06-04T12:34:08;2.22;;;1.33;;
26113;SDS011;13966;48.828;9.064;2023-06-04T12:36:34;2.33;;;1.38;;
26113;SDS011;13966;48.828;9.064;2023-06-04T12:39:01;1.42;;;1.30;;
26113;SDS011;13966;48.828;9.064;2023-06-04T12:41:27;3.45;;;1.40;;
26113;SDS011;13966;48.828;9.064;2023-06-04T12:43:54;3.10;;;1.67;;
26113;SDS011;13966;48.828;9.064;2023-06-04T12:46:20;2.63;;;1.55;;
26113;SDS011;13966;48.828;9.064;2023-06-04T12:48:47;2.35;;;1.60;;
26113;SDS011;13966;48.828;9.064;2023-06-04T12:51:13;3.70;;;1.60;;
26113;SDS011;13966;48.828;9.064;2023-06-04T12:53:40;1.80;;;1.30;;
26113;SDS011;13966;48.828;9.064;2023-06-04T12:56:06;3.80;;;1.52;;
26113;SDS011;13966;48.828;9.064;2023-06-04T12:58:32;2.08;;;1.20;;
26113;SDS011;13966;48.828;9.064;2023-06-04T13:00:58;2.35;;;1.25;;
26113;SDS011;13966;48.828;9.064;2023-06-04T13:03:25;5.13;;;1.83;;
26113;SDS011;13966;48.828;9.064;2023-06-04T13:05:51;5.80;;;1.30;;
26113;SDS011;13966;48.828;9.064;2023-06-04T13:08:18;3.13;;;1.38;;
26113;SDS011;13966;48.828;9.064;2023-06-04T13:10:46;2.05;;;1.58;;
26113;SDS011;13966;48.828;9.064;2023-06-04T13:13:13;2.75;;;1.40;;
26113;SDS011;13966;48.828;9.064;2023-06-04T13:15:40;4.13;;;1.40;;
26113;SDS011;13966;48.828;9.064;2023-06-04T13:18:07;3.03;;;1.23;;
26113;SDS011;13966;48.828;9.064;2023-06-04T13:20:33;2.38;;;1.55;;
26113;SDS011;13966;48.828;9.064;2023-06-04T13:22:59;4.57;;;1.77;;
26113;SDS011;13966;48.828;9.064;2023-06-04T13:25:25;4.10;;;1.30;;
26113;SDS011;13966;48.828;9.064;2023-06-04T13:27:53;3.10;;;1.52;;
26113;SDS011;13966;48.828;9.064;2023-06-04T13:30:19;2.85;;;1.45;;
26113;SDS011;13966;48.828;9.064;2023-06-04T13:32:45;3.08;;;2.47;;
26113;SDS011;13966;48.828;9.064;2023-06-04T13:35:11;3.85;;;1.98;;
26113;SDS011;13966;48.828;9.064;2023-06-04T13:37:37;4.32;;;2.03;;
26113;SDS011;13966;48.828;9.064;2023-06-04T13:40:03;4.43;;;2.20;;
26113;SDS011;13966;48.828;9.064;2023-06-04T13:42:29;3.33;;;2.10;;
26113;SDS011;13966;48.828;9.064;2023-06-04T13:44:55;3.72;;;1.70;;
26113;SDS011;13966;48.828;9.064;2023-06-04T13:47:22;2.65;;;1.45;;
26113;SDS011;13966;48.828;9.064;2023-06-04T13:49:48;3.38;;;1.80;;
26113;SDS011;13966;48.828;9.064;2023-06-04T13:52:14;1.65;;;1.40;;
26113;SDS011;13966;48.828;9.064;2023-06-04T13:54:40;3.83;;;1.92;;
26113;SDS011;13966;48.828;9.064;2023-06-04T13:57:06;2.92;;;1.65;;
26113;SDS011;13966;48.828;9.064;2023-06-04T13:59:36;14.18;;;12.88;;
26113;SDS011;13966;48.828;9.064;2023-06-04T14:02:02;13.63;;;12.23;;
26113;SDS011;13966;48.828;9.064;2023-06-04T14:04:28;11.27;;;9.00;;
26113;SDS011;13966;48.828;9.064;2023-06-04T14:06:54;3.75;;;2.63;;
26113;SDS011;13966;48.828;9.064;2023-06-04T14:09:20;3.13;;;2.05;;
26113;SDS011;13966;48.828;9.064;2023-06-04T14:11:46;4.15;;;2.17;;
26113;SDS011;13966;48.828;9.064;2023-06-04T14:14:15;4.65;;;2.28;;
26113;SDS011;13966;48.828;9.064;2023-06-04T14:16:42;3.42;;;1.85;;
26113;SDS011;13966;48.828;9.064;2023-06-04T14:19:08;2.95;;;2.10;;
26113;SDS011;13966;48.828;9.064;2023-06-04T14:21:34;3.25;;;2.08;;
26113;SDS011;13966;48.828;9.064;2023-06-04T14:24:00;4.95;;;2.10;;
26113;SDS011;13966;48.828;9.064;2023-06-04T14:26:26;3.38;;;1.70;;
26113;SDS011;13966;48.828;9.064;2023-06-04T14:28:53;2.60;;;1.95;;
26113;SDS011;13966;48.828;9.064;2023-06-04T14:31:19;2.65;;;1.92;;
26113;SDS011;13966;48.828;9.064;2023-06-04T14:33:45;5.90;;;2.13;;
26113;SDS011;13966;48.828;9.064;2023-06-04T14:36:11;4.30;;;2.00;;
26113;SDS011;13966;48.828;9.064;2023-06-04T14:38:37;2.88;;;2.03;;
26113;SDS011;13966;48.828;9.064;2023-06-04T14:41:03;3.13;;;2.03;;